sensor_id;sensor_type;location;lat;lon;timestamp;pressure;altitude;pressure_sealevel;temperature
17142;BMP180;32805;53.556;9.944;2022-08-19T00:01:41;101009.00;;;19.50
17142;BMP180;32805;53.556;9.944;2022-08-19T00:04:11;101006.00;;;19.50
17142;BMP180;32805;53.556;9.944;2022-08-19T00:06:42;101000.00;;;19.50
17142;BMP180;32805;53.556;9.944;2022-08-19T00:09:14;100995.00;;;19.50
17142;BMP180;32805;53.556;9.944;2022-08-19T00:11:43;100986.00;;;19.60
17142;BMP180;32805;53.556;9.944;2022-08-19T00:14:12;100991.00;;;19.60
17142;BMP180;32805;53.556;9.944;2022-08-19T00:16:42;100980.00;;;19.60
17142;BMP180;32805;53.556;9.944;2022-08-19T00:19:10;100985.00;;;19.60
17142;BMP180;32805;53.556;9.944;2022-08-19T00:21:38;100986.00;;;19.60
17142;BMP180;32805;53.556;9.944;2022-08-19T00:24:10;100994.00;;;19.60
17142;BMP180;32805;53.556;9.944;2022-08-19T00:26:39;100985.00;;;19.60
17142;BMP180;32805;53.556;9.944;2022-08-19T00:29:09;100995.00;;;19.60
17142;BMP180;32805;53.556;9.944;2022-08-19T00:31:38;100993.00;;;19.60
17142;BMP180;32805;53.556;9.944;2022-08-19T00:34:07;100985.00;;;19.70
17142;BMP180;32805;53.556;9.944;2022-08-19T00:36:34;100987.00;;;19.70
17142;BMP180;32805;53.556;9.944;2022-08-19T00:39:03;100981.00;;;19.70
17142;BMP180;32805;53.556;9.944;2022-08-19T00:41:32;100974.00;;;19.80
17142;BMP180;32805;53.556;9.944;2022-08-19T00:44:04;100971.00;;;19.70
17142;BMP180;32805;53.556;9.944;2022-08-19T00:46:34;100966.00;;;19.50
17142;BMP180;32805;53.556;9.944;2022-08-19T00:49:06;100974.00;;;19.40
17142;BMP180;32805;53.556;9.944;2022-08-19T00:51:36;100974.00;;;19.40
17142;BMP180;32805;53.556;9.944;2022-08-19T00:54:04;100969.00;;;19.40
17142;BMP180;32805;53.556;9.944;2022-08-19T00:56:34;100963.00;;;19.30
17142;BMP180;32805;53.556;9.944;2022-08-19T00:59:04;100969.00;;;19.30
17142;BMP180;32805;53.556;9.944;2022-08-19T01:01:35;100968.00;;;19.30
17142;BMP180;32805;53.556;9.944;2022-08-19T01:04:03;100970.00;;;19.40
17142;BMP180;32805;53.556;9.944;2022-08-19T01:06:32;100962.00;;;19.40
17142;BMP180;32805;53.556;9.944;2022-08-19T01:09:01;100967.00;;;19.40
17142;BMP180;32805;53.556;9.944;2022-08-19T01:11:30;100974.00;;;19.50
17142;BMP180;32805;53.556;9.944;2022-08-19T01:13:59;100975.00;;;19.60
17142;BMP180;32805;53.556;9.944;2022-08-19T01:16:28;100967.00;;;19.60
17142;BMP180;32805;53.556;9.944;2022-08-19T01:18:57;100962.00;;;19.50
17142;BMP180;32805;53.556;9.944;2022-08-19T01:21:28;100958.00;;;19.50
17142;BMP180;32805;53.556;9.944;2022-08-19T01:23:58;100956.00;;;19.50
17142;BMP180;32805;53.556;9.944;2022-08-19T01:26:27;100969.00;;;19.60
17142;BMP180;32805;53.556;9.944;2022-08-19T01:28:58;100963.00;;;19.60
17142;BMP180;32805;53.556;9.944;2022-08-19T01:31:28;100960.00;;;19.60
17142;BMP180;32805;53.556;9.944;2022-08-19T01:33:59;100959.00;;;19.50
17142;BMP180;32805;53.556;9.944;2022-08-19T01:36:31;100957.00;;;19.60
17142;BMP180;32805;53.556;9.944;2022-08-19T01:39:01;100952.00;;;19.80
17142;BMP180;32805;53.556;9.944;2022-08-19T01:41:29;100949.00;;;19.60
17142;BMP180;32805;53.556;9.944;2022-08-19T01:43:57;100943.00;;;19.50
17142;BMP180;32805;53.556;9.944;2022-08-19T01:46:43;100936.00;;;19.40
17142;BMP180;32805;53.556;9.944;2022-08-19T01:49:13;100940.00;;;19.40
17142;BMP180;32805;53.556;9.944;2022-08-19T01:51:40;100934.00;;;19.50
17142;BMP180;32805;53.556;9.944;2022-08-19T01:54:11;100928.00;;;19.50
17142;BMP180;32805;53.556;9.944;2022-08-19T01:56:58;100926.00;;;19.50
17142;BMP180;32805;53.556;9.944;2022-08-19T01:59:27;100925.00;;;19.50
17142;BMP180;32805;53.556;9.944;2022-08-19T02:01:55;100935.00;;;19.40
17142;BMP180;32805;53.556;9.944;2022-08-19T02:04:23;100952.00;;;19.30
17142;BMP180;32805;53.556;9.944;2022-08-19T02:06:51;100937.00;;;19.30
17142;BMP180;32805;53.556;9.944;2022-08-19T02:09:21;100942.00;;;19.20
17142;BMP180;32805;53.556;9.944;2022-08-19T02:11:48;100941.00;;;19.30
17142;BMP180;32805;53.556;9.944;2022-08-19T02:14:16;100923.00;;;19.20
17142;BMP180;32805;53.556;9.944;2022-08-19T02:16:44;100921.00;;;19.20
17142;BMP180;32805;53.556;9.944;2022-08-19T02:19:11;100918.00;;;19.10
17142;BMP180;32805;53.556;9.944;2022-08-19T02:21:39;100904.00;;;19.10
17142;BMP180;32805;53.556;9.944;2022-08-19T02:24:07;100910.00;;;19.20
17142;BMP180;32805;53.556;9.944;2022-08-19T02:26:36;100905.00;;;19.00
17142;BMP180;32805;53.556;9.944;2022-08-19T02:29:07;100902.00;;;19.00
17142;BMP180;32805;53.556;9.944;2022-08-19T02:31:35;100900.00;;;19.00
17142;BMP180;32805;53.556;9.944;2022-08-19T02:34:03;100895.00;;;18.90
17142;BMP180;32805;53.556;9.944;2022-08-19T02:36:30;100909.00;;;18.90
17142;BMP180;32805;53.556;9.944;2022-08-19T02:38:58;100912.00;;;18.90
17142;BMP180;32805;53.556;9.944;2022-08-19T02:41:28;100928.00;;;18.90
17142;BMP180;32805;53.556;9.944;2022-08-19T02:44:00;100924.00;;;18.90
17142;BMP180;32805;53.556;9.944;2022-08-19T02:46:48;100921.00;;;18.80
17142;BMP180;32805;53.556;9.944;2022-08-19T02:49:18;100922.00;;;18.90
17142;BMP180;32805;53.556;9.944;2022-08-19T02:51:47;100911.00;;;19.00
17142;BMP180;32805;53.556;9.944;2022-08-19T02:54:15;100915.00;;;18.90
17142;BMP180;32805;53.556;9.944;2022-08-19T02:56:44;100918.00;;;18.80
17142;BMP180;32805;53.556;9.944;2022-08-19T02:59:13;100910.00;;;18.70
17142;BMP180;32805;53.556;9.944;2022-08-19T03:01:41;100916.00;;;18.80
17142;BMP180;32805;53.556;9.944;2022-08-19T03:04:13;100912.00;;;18.70
17142;BMP180;32805;53.556;9.944;2022-08-19T03:06:44;100916.00;;;18.70
17142;BMP180;32805;53.556;9.944;2022-08-19T03:09:13;100928.00;;;18.60
17142;BMP180;32805;53.556;9.944;2022-08-19T03:11:41;100931.00;;;18.60
17142;BMP180;32805;53.556;9.944;2022-08-19T03:14:09;100932.00;;;18.60
17142;BMP180;32805;53.556;9.944;2022-08-19T03:16:43;100918.00;;;18.60
17142;BMP180;32805;53.556;9.944;2022-08-19T03:19:12;100921.00;;;18.50
17142;BMP180;32805;53.556;9.944;2022-08-19T03:21:39;100924.00;;;18.50
17142;BMP180;32805;53.556;9.944;2022-08-19T03:24:08;100923.00;;;18.50
17142;BMP180;32805;53.556;9.944;2022-08-19T03:26:38;100925.00;;;18.50
17142;BMP180;32805;53.556;9.944;2022-08-19T03:29:07;100920.00;;;18.50
17142;BMP180;32805;53.556;9.944;2022-08-19T03:31:41;100929.00;;;18.70
17142;BMP180;32805;53.556;9.944;2022-08-19T03:34:21;100937.00;;;18.60
17142;BMP180;32805;53.556;9.944;2022-08-19T03:36:49;100934.00;;;18.60
17142;BMP180;32805;53.556;9.944;2022-08-19T03:39:17;100927.00;;;18.50
17142;BMP180;32805;53.556;9.944;2022-08-19T03:41:46;100933.00;;;18.50
17142;BMP180;32805;53.556;9.944;2022-08-19T03:44:36;100939.00;;;18.50
17142;BMP180;32805;53.556;9.944;2022-08-19T03:47:06;100934.00;;;18.50
17142;BMP180;32805;53.556;9.944;2022-08-19T03:49:34;100939.00;;;18.50
17142;BMP180;32805;53.556;9.944;2022-08-19T03:52:03;100937.00;;;18.60
17142;BMP180;32805;53.556;9.944;2022-08-19T03:54:34;100943.00;;;18.70
17142;BMP180;32805;53.556;9.944;2022-08-19T03:57:02;100940.00;;;18.70
17142;BMP180;32805;53.556;9.944;2022-08-19T03:59:32;100940.00;;;18.60
17142;BMP180;32805;53.556;9.944;2022-08-19T04:02:02;100937.00;;;18.60
17142;BMP180;32805;53.556;9.944;2022-08-19T04:04:31;100947.00;;;18.60
17142;BMP180;32805;53.556;9.944;2022-08-19T04:06:59;100943.00;;;18.50
17142;BMP180;32805;53.556;9.944;2022-08-19T04:09:27;100959.00;;;18.60
17142;BMP180;32805;53.556;9.944;2022-08-19T04:11:56;100954.00;;;18.60
17142;BMP180;32805;53.556;9.944;2022-08-19T04:14:26;100955.00;;;18.70
17142;BMP180;32805;53.556;9.944;2022-08-19T04:16:56;100951.00;;;18.60
17142;BMP180;32805;53.556;9.944;2022-08-19T04:19:25;100961.00;;;18.50
17142;BMP180;32805;53.556;9.944;2022-08-19T04:21:54;100965.00;;;18.60
17142;BMP180;32805;53.556;9.944;2022-08-19T04:24:23;100967.00;;;18.50
17142;BMP180;32805;53.556;9.944;2022-08-19T04:26:51;100970.00;;;18.50
17142;BMP180;32805;53.556;9.944;2022-08-19T04:29:21;100968.00;;;18.50
17142;BMP180;32805;53.556;9.944;2022-08-19T04:31:52;100978.00;;;18.40
17142;BMP180;32805;53.556;9.944;2022-08-19T04:34:22;100976.00;;;18.40
17142;BMP180;32805;53.556;9.944;2022-08-19T04:36:51;100990.00;;;18.30
17142;BMP180;32805;53.556;9.944;2022-08-19T04:39:23;100979.00;;;18.40
17142;BMP180;32805;53.556;9.944;2022-08-19T04:42:13;100984.00;;;18.40
17142;BMP180;32805;53.556;9.944;2022-08-19T04:44:59;100979.00;;;18.30
17142;BMP180;32805;53.556;9.944;2022-08-19T04:47:27;100988.00;;;18.40
17142;BMP180;32805;53.556;9.944;2022-08-19T04:50:15;100987.00;;;18.30
17142;BMP180;32805;53.556;9.944;2022-08-19T04:52:44;100985.00;;;18.30
17142;BMP180;32805;53.556;9.944;2022-08-19T04:55:13;100989.00;;;18.30
17142;BMP180;32805;53.556;9.944;2022-08-19T04:57:41;100989.00;;;18.20
17142;BMP180;32805;53.556;9.944;2022-08-19T05:00:10;100996.00;;;18.20
17142;BMP180;32805;53.556;9.944;2022-08-19T05:02:38;100994.00;;;18.10
17142;BMP180;32805;53.556;9.944;2022-08-19T05:05:06;100988.00;;;18.10
17142;BMP180;32805;53.556;9.944;2022-08-19T05:07:35;100988.00;;;18.00
17142;BMP180;32805;53.556;9.944;2022-08-19T05:10:05;100995.00;;;18.00
17142;BMP180;32805;53.556;9.944;2022-08-19T05:12:34;100997.00;;;18.00
17142;BMP180;32805;53.556;9.944;2022-08-19T05:15:04;101001.00;;;18.10
17142;BMP180;32805;53.556;9.944;2022-08-19T05:17:32;100998.00;;;18.10
17142;BMP180;32805;53.556;9.944;2022-08-19T05:20:06;100994.00;;;18.10
17142;BMP180;32805;53.556;9.944;2022-08-19T05:22:51;100992.00;;;18.30
17142;BMP180;32805;53.556;9.944;2022-08-19T05:25:20;100995.00;;;18.30
17142;BMP180;32805;53.556;9.944;2022-08-19T05:27:50;101006.00;;;18.20
17142;BMP180;32805;53.556;9.944;2022-08-19T05:30:17;101007.00;;;18.40
17142;BMP180;32805;53.556;9.944;2022-08-19T05:33:07;101009.00;;;18.30
17142;BMP180;32805;53.556;9.944;2022-08-19T05:35:38;101009.00;;;18.30
17142;BMP180;32805;53.556;9.944;2022-08-19T05:38:07;101007.00;;;18.30
17142;BMP180;32805;53.556;9.944;2022-08-19T05:40:35;101012.00;;;18.30
17142;BMP180;32805;53.556;9.944;2022-08-19T05:43:06;101003.00;;;18.20
17142;BMP180;32805;53.556;9.944;2022-08-19T05:45:38;101004.00;;;18.30
17142;BMP180;32805;53.556;9.944;2022-08-19T05:48:06;101006.00;;;18.30
17142;BMP180;32805;53.556;9.944;2022-08-19T05:50:35;101009.00;;;18.20
17142;BMP180;32805;53.556;9.944;2022-08-19T05:53:03;101008.00;;;18.20
17142;BMP180;32805;53.556;9.944;2022-08-19T05:55:31;101005.00;;;18.10
17142;BMP180;32805;53.556;9.944;2022-08-19T05:57:59;100997.00;;;18.10
17142;BMP180;32805;53.556;9.944;2022-08-19T06:00:29;100999.00;;;18.10
17142;BMP180;32805;53.556;9.944;2022-08-19T06:02:57;100994.00;;;18.30
17142;BMP180;32805;53.556;9.944;2022-08-19T06:05:38;100990.00;;;18.40
17142;BMP180;32805;53.556;9.944;2022-08-19T06:08:16;100990.00;;;18.40
17142;BMP180;32805;53.556;9.944;2022-08-19T06:10:45;100989.00;;;18.30
17142;BMP180;32805;53.556;9.944;2022-08-19T06:13:12;101001.00;;;18.30
17142;BMP180;32805;53.556;9.944;2022-08-19T06:15:42;101001.00;;;18.20
17142;BMP180;32805;53.556;9.944;2022-08-19T06:18:13;101001.00;;;18.30
17142;BMP180;32805;53.556;9.944;2022-08-19T06:20:42;101004.00;;;18.30
17142;BMP180;32805;53.556;9.944;2022-08-19T06:23:21;101002.00;;;18.30
17142;BMP180;32805;53.556;9.944;2022-08-19T06:25:50;101008.00;;;18.30
17142;BMP180;32805;53.556;9.944;2022-08-19T06:28:17;101013.00;;;18.50
17142;BMP180;32805;53.556;9.944;2022-08-19T06:30:47;101007.00;;;18.50
17142;BMP180;32805;53.556;9.944;2022-08-19T06:33:15;101007.00;;;18.60
17142;BMP180;32805;53.556;9.944;2022-08-19T06:35:44;101007.00;;;18.60
17142;BMP180;32805;53.556;9.944;2022-08-19T06:38:12;101002.00;;;18.50
17142;BMP180;32805;53.556;9.944;2022-08-19T06:40:40;100995.00;;;18.50
17142;BMP180;32805;53.556;9.944;2022-08-19T06:43:07;100993.00;;;18.50
17142;BMP180;32805;53.556;9.944;2022-08-19T06:45:36;100991.00;;;18.50
17142;BMP180;32805;53.556;9.944;2022-08-19T06:48:06;100989.00;;;18.50
17142;BMP180;32805;53.556;9.944;2022-08-19T06:50:37;100986.00;;;18.60
17142;BMP180;32805;53.556;9.944;2022-08-19T06:53:06;100989.00;;;18.60
17142;BMP180;32805;53.556;9.944;2022-08-19T06:55:35;100986.00;;;18.70
17142;BMP180;32805;53.556;9.944;2022-08-19T06:58:04;100992.00;;;18.90
17142;BMP180;32805;53.556;9.944;2022-08-19T07:00:32;100990.00;;;19.00
17142;BMP180;32805;53.556;9.944;2022-08-19T07:03:00;100979.00;;;19.00
17142;BMP180;32805;53.556;9.944;2022-08-19T07:05:39;100985.00;;;18.90
17142;BMP180;32805;53.556;9.944;2022-08-19T07:08:11;101000.00;;;18.80
17142;BMP180;32805;53.556;9.944;2022-08-19T07:10:42;100996.00;;;18.90
17142;BMP180;32805;53.556;9.944;2022-08-19T07:13:10;100996.00;;;18.80
17142;BMP180;32805;53.556;9.944;2022-08-19T07:15:39;101000.00;;;18.80
17142;BMP180;32805;53.556;9.944;2022-08-19T07:18:06;100996.00;;;18.80
17142;BMP180;32805;53.556;9.944;2022-08-19T07:20:39;100992.00;;;18.90
17142;BMP180;32805;53.556;9.944;2022-08-19T07:23:08;100994.00;;;19.10
17142;BMP180;32805;53.556;9.944;2022-08-19T07:25:41;100992.00;;;19.10
17142;BMP180;32805;53.556;9.944;2022-08-19T07:28:18;100996.00;;;19.20
17142;BMP180;32805;53.556;9.944;2022-08-19T07:30:51;100997.00;;;19.20
17142;BMP180;32805;53.556;9.944;2022-08-19T07:33:21;101010.00;;;19.30
17142;BMP180;32805;53.556;9.944;2022-08-19T07:35:54;101015.00;;;19.30
17142;BMP180;32805;53.556;9.944;2022-08-19T07:38:22;101022.00;;;19.20
17142;BMP180;32805;53.556;9.944;2022-08-19T07:40:50;101023.00;;;19.30
17142;BMP180;32805;53.556;9.944;2022-08-19T07:43:20;101030.00;;;19.40
17142;BMP180;32805;53.556;9.944;2022-08-19T07:46:00;101031.00;;;19.30
17142;BMP180;32805;53.556;9.944;2022-08-19T07:48:28;101029.00;;;19.20
17142;BMP180;32805;53.556;9.944;2022-08-19T07:51:03;101029.00;;;19.30
17142;BMP180;32805;53.556;9.944;2022-08-19T07:53:32;101038.00;;;19.40
17142;BMP180;32805;53.556;9.944;2022-08-19T07:56:05;101035.00;;;19.50
17142;BMP180;32805;53.556;9.944;2022-08-19T07:58:36;101038.00;;;19.50
17142;BMP180;32805;53.556;9.944;2022-08-19T08:01:06;101039.00;;;19.50
17142;BMP180;32805;53.556;9.944;2022-08-19T08:03:36;101037.00;;;19.60
17142;BMP180;32805;53.556;9.944;2022-08-19T08:06:23;101060.00;;;19.40
17142;BMP180;32805;53.556;9.944;2022-08-19T08:09:09;101060.00;;;19.20
17142;BMP180;32805;53.556;9.944;2022-08-19T08:11:54;101059.00;;;19.10
17142;BMP180;32805;53.556;9.944;2022-08-19T08:14:32;101066.00;;;19.10
17142;BMP180;32805;53.556;9.944;2022-08-19T08:17:02;101068.00;;;19.20
17142;BMP180;32805;53.556;9.944;2022-08-19T08:19:37;101066.00;;;19.30
17142;BMP180;32805;53.556;9.944;2022-08-19T08:22:06;101074.00;;;19.30
17142;BMP180;32805;53.556;9.944;2022-08-19T08:24:34;101069.00;;;19.40
17142;BMP180;32805;53.556;9.944;2022-08-19T08:27:03;101062.00;;;19.30
17142;BMP180;32805;53.556;9.944;2022-08-19T08:29:37;101068.00;;;19.40
17142;BMP180;32805;53.556;9.944;2022-08-19T08:32:05;101071.00;;;19.30
17142;BMP180;32805;53.556;9.944;2022-08-19T08:34:40;101076.00;;;19.20
17142;BMP180;32805;53.556;9.944;2022-08-19T08:37:09;101073.00;;;19.30
17142;BMP180;32805;53.556;9.944;2022-08-19T08:39:41;101076.00;;;19.40
17142;BMP180;32805;53.556;9.944;2022-08-19T08:42:13;101069.00;;;19.50
17142;BMP180;32805;53.556;9.944;2022-08-19T08:44:49;101080.00;;;19.60
17142;BMP180;32805;53.556;9.944;2022-08-19T08:47:25;101068.00;;;19.60
17142;BMP180;32805;53.556;9.944;2022-08-19T08:49:58;101071.00;;;19.60
17142;BMP180;32805;53.556;9.944;2022-08-19T08:52:31;101077.00;;;19.60
17142;BMP180;32805;53.556;9.944;2022-08-19T08:55:04;101081.00;;;19.40
17142;BMP180;32805;53.556;9.944;2022-08-19T08:57:41;101079.00;;;19.30
17142;BMP180;32805;53.556;9.944;2022-08-19T09:00:17;101071.00;;;19.40
17142;BMP180;32805;53.556;9.944;2022-08-19T09:02:46;101079.00;;;19.60
17142;BMP180;32805;53.556;9.944;2022-08-19T09:05:17;101076.00;;;19.50
17142;BMP180;32805;53.556;9.944;2022-08-19T09:07:56;101079.00;;;19.50
17142;BMP180;32805;53.556;9.944;2022-08-19T09:10:29;101079.00;;;19.40
17142;BMP180;32805;53.556;9.944;2022-08-19T09:13:06;101072.00;;;19.60
17142;BMP180;32805;53.556;9.944;2022-08-19T09:15:42;101076.00;;;19.80
17142;BMP180;32805;53.556;9.944;2022-08-19T09:18:13;101071.00;;;20.00
17142;BMP180;32805;53.556;9.944;2022-08-19T09:20:45;101074.00;;;20.20
17142;BMP180;32805;53.556;9.944;2022-08-19T09:23:15;101080.00;;;20.20
17142;BMP180;32805;53.556;9.944;2022-08-19T09:25:52;101085.00;;;20.10
17142;BMP180;32805;53.556;9.944;2022-08-19T09:28:20;101073.00;;;20.10
17142;BMP180;32805;53.556;9.944;2022-08-19T09:30:52;101083.00;;;20.10
17142;BMP180;32805;53.556;9.944;2022-08-19T09:33:20;101067.00;;;20.10
17142;BMP180;32805;53.556;9.944;2022-08-19T09:35:48;101077.00;;;20.10
17142;BMP180;32805;53.556;9.944;2022-08-19T09:38:21;101066.00;;;19.90
17142;BMP180;32805;53.556;9.944;2022-08-19T09:40:49;101064.00;;;20.10
17142;BMP180;32805;53.556;9.944;2022-08-19T09:43:17;101063.00;;;20.00
17142;BMP180;32805;53.556;9.944;2022-08-19T09:45:59;101067.00;;;19.70
17142;BMP180;32805;53.556;9.944;2022-08-19T09:48:27;101074.00;;;19.60
17142;BMP180;32805;53.556;9.944;2022-08-19T09:51:02;101075.00;;;19.60
17142;BMP180;32805;53.556;9.944;2022-08-19T09:53:32;101065.00;;;19.50
17142;BMP180;32805;53.556;9.944;2022-08-19T09:56:03;101079.00;;;19.70
17142;BMP180;32805;53.556;9.944;2022-08-19T09:58:34;101079.00;;;19.80
17142;BMP180;32805;53.556;9.944;2022-08-19T10:01:03;101074.00;;;19.90
17142;BMP180;32805;53.556;9.944;2022-08-19T10:03:33;101080.00;;;20.00
17142;BMP180;32805;53.556;9.944;2022-08-19T10:06:03;101073.00;;;20.00
17142;BMP180;32805;53.556;9.944;2022-08-19T10:08:42;101066.00;;;19.90
17142;BMP180;32805;53.556;9.944;2022-08-19T10:11:16;101078.00;;;20.00
17142;BMP180;32805;53.556;9.944;2022-08-19T10:13:54;101079.00;;;20.00
17142;BMP180;32805;53.556;9.944;2022-08-19T10:16:23;101079.00;;;19.90
17142;BMP180;32805;53.556;9.944;2022-08-19T10:18:56;101084.00;;;20.00
17142;BMP180;32805;53.556;9.944;2022-08-19T10:21:28;101087.00;;;19.90
17142;BMP180;32805;53.556;9.944;2022-08-19T10:24:00;101084.00;;;20.00
17142;BMP180;32805;53.556;9.944;2022-08-19T10:26:32;101079.00;;;19.90
17142;BMP180;32805;53.556;9.944;2022-08-19T10:29:00;101085.00;;;19.90
17142;BMP180;32805;53.556;9.944;2022-08-19T10:31:30;101081.00;;;19.90
17142;BMP180;32805;53.556;9.944;2022-08-19T10:34:18;101088.00;;;19.90
17142;BMP180;32805;53.556;9.944;2022-08-19T10:36:54;101079.00;;;19.80
17142;BMP180;32805;53.556;9.944;2022-08-19T10:39:29;101086.00;;;19.80
17142;BMP180;32805;53.556;9.944;2022-08-19T10:41:58;101081.00;;;19.90
17142;BMP180;32805;53.556;9.944;2022-08-19T10:44:26;101073.00;;;20.00
17142;BMP180;32805;53.556;9.944;2022-08-19T10:46:58;101080.00;;;19.90
17142;BMP180;32805;53.556;9.944;2022-08-19T10:49:26;101086.00;;;19.90
17142;BMP180;32805;53.556;9.944;2022-08-19T10:51:54;101082.00;;;19.80
17142;BMP180;32805;53.556;9.944;2022-08-19T10:54:47;101081.00;;;19.90
17142;BMP180;32805;53.556;9.944;2022-08-19T10:57:34;101075.00;;;19.90
17142;BMP180;32805;53.556;9.944;2022-08-19T11:00:23;101062.00;;;19.90
17142;BMP180;32805;53.556;9.944;2022-08-19T11:02:52;101073.00;;;20.10
17142;BMP180;32805;53.556;9.944;2022-08-19T11:05:19;101074.00;;;20.00
17142;BMP180;32805;53.556;9.944;2022-08-19T11:07:50;101058.00;;;20.20
17142;BMP180;32805;53.556;9.944;2022-08-19T11:10:20;101058.00;;;20.40
17142;BMP180;32805;53.556;9.944;2022-08-19T11:12:50;101058.00;;;20.40
17142;BMP180;32805;53.556;9.944;2022-08-19T11:15:20;101068.00;;;20.30
17142;BMP180;32805;53.556;9.944;2022-08-19T11:17:49;101063.00;;;20.40
17142;BMP180;32805;53.556;9.944;2022-08-19T11:20:18;101072.00;;;20.70
17142;BMP180;32805;53.556;9.944;2022-08-19T11:22:46;101069.00;;;21.10
17142;BMP180;32805;53.556;9.944;2022-08-19T11:25:15;101068.00;;;21.30
17142;BMP180;32805;53.556;9.944;2022-08-19T11:27:44;101076.00;;;21.30
17142;BMP180;32805;53.556;9.944;2022-08-19T11:30:13;101070.00;;;21.30
17142;BMP180;32805;53.556;9.944;2022-08-19T11:32:41;101057.00;;;21.30
17142;BMP180;32805;53.556;9.944;2022-08-19T11:35:15;101062.00;;;21.20
17142;BMP180;32805;53.556;9.944;2022-08-19T11:37:43;101067.00;;;21.00
17142;BMP180;32805;53.556;9.944;2022-08-19T11:40:11;101057.00;;;21.20
17142;BMP180;32805;53.556;9.944;2022-08-19T11:42:39;101053.00;;;21.40
17142;BMP180;32805;53.556;9.944;2022-08-19T11:45:24;101054.00;;;21.80
17142;BMP180;32805;53.556;9.944;2022-08-19T11:47:53;101045.00;;;21.70
17142;BMP180;32805;53.556;9.944;2022-08-19T11:50:21;101052.00;;;21.80
17142;BMP180;32805;53.556;9.944;2022-08-19T11:52:51;101044.00;;;21.80
17142;BMP180;32805;53.556;9.944;2022-08-19T11:55:21;101057.00;;;21.70
17142;BMP180;32805;53.556;9.944;2022-08-19T11:57:50;101062.00;;;21.60
17142;BMP180;32805;53.556;9.944;2022-08-19T12:00:18;101060.00;;;21.50
17142;BMP180;32805;53.556;9.944;2022-08-19T12:02:48;101061.00;;;21.30
17142;BMP180;32805;53.556;9.944;2022-08-19T12:05:16;101060.00;;;21.20
17142;BMP180;32805;53.556;9.944;2022-08-19T12:07:44;101062.00;;;21.10
17142;BMP180;32805;53.556;9.944;2022-08-19T12:10:12;101058.00;;;21.10
17142;BMP180;32805;53.556;9.944;2022-08-19T12:12:45;101066.00;;;21.30
17142;BMP180;32805;53.556;9.944;2022-08-19T12:15:25;101061.00;;;21.50
17142;BMP180;32805;53.556;9.944;2022-08-19T12:18:04;101062.00;;;21.80
17142;BMP180;32805;53.556;9.944;2022-08-19T12:20:34;101067.00;;;22.10
17142;BMP180;32805;53.556;9.944;2022-08-19T12:23:03;101049.00;;;22.20
17142;BMP180;32805;53.556;9.944;2022-08-19T12:25:31;101046.00;;;22.30
17142;BMP180;32805;53.556;9.944;2022-08-19T12:28:01;101053.00;;;22.60
17142;BMP180;32805;53.556;9.944;2022-08-19T12:30:30;101054.00;;;22.80
17142;BMP180;32805;53.556;9.944;2022-08-19T12:32:57;101044.00;;;22.70
17142;BMP180;32805;53.556;9.944;2022-08-19T12:35:26;101039.00;;;23.10
17142;BMP180;32805;53.556;9.944;2022-08-19T12:37:56;101038.00;;;23.40
17142;BMP180;32805;53.556;9.944;2022-08-19T12:40:26;101035.00;;;23.50
17142;BMP180;32805;53.556;9.944;2022-08-19T12:42:54;101026.00;;;23.40
17142;BMP180;32805;53.556;9.944;2022-08-19T12:45:22;101028.00;;;23.20
17142;BMP180;32805;53.556;9.944;2022-08-19T12:47:52;101021.00;;;23.10
17142;BMP180;32805;53.556;9.944;2022-08-19T12:50:21;101035.00;;;23.30
17142;BMP180;32805;53.556;9.944;2022-08-19T12:52:50;101032.00;;;23.30
17142;BMP180;32805;53.556;9.944;2022-08-19T12:55:18;101032.00;;;23.40
17142;BMP180;32805;53.556;9.944;2022-08-19T12:57:46;101034.00;;;23.40
17142;BMP180;32805;53.556;9.944;2022-08-19T13:00:16;101035.00;;;23.50
17142;BMP180;32805;53.556;9.944;2022-08-19T13:02:48;101028.00;;;23.30
17142;BMP180;32805;53.556;9.944;2022-08-19T13:05:19;101033.00;;;23.20
17142;BMP180;32805;53.556;9.944;2022-08-19T13:07:51;101030.00;;;22.90
17142;BMP180;32805;53.556;9.944;2022-08-19T13:10:24;101031.00;;;22.80
17142;BMP180;32805;53.556;9.944;2022-08-19T13:12:54;101026.00;;;22.80
17142;BMP180;32805;53.556;9.944;2022-08-19T13:15:23;101038.00;;;22.70
17142;BMP180;32805;53.556;9.944;2022-08-19T13:17:52;101033.00;;;22.50
17142;BMP180;32805;53.556;9.944;2022-08-19T13:20:23;101024.00;;;22.50
17142;BMP180;32805;53.556;9.944;2022-08-19T13:22:53;101032.00;;;22.50
17142;BMP180;32805;53.556;9.944;2022-08-19T13:25:21;101027.00;;;22.60
17142;BMP180;32805;53.556;9.944;2022-08-19T13:27:49;101020.00;;;22.60
17142;BMP180;32805;53.556;9.944;2022-08-19T13:30:19;101027.00;;;22.70
17142;BMP180;32805;53.556;9.944;2022-08-19T13:33:04;101031.00;;;22.70
17142;BMP180;32805;53.556;9.944;2022-08-19T13:35:44;101022.00;;;22.70
17142;BMP180;32805;53.556;9.944;2022-08-19T13:38:14;101022.00;;;22.70
17142;BMP180;32805;53.556;9.944;2022-08-19T13:40:43;101018.00;;;22.90
17142;BMP180;32805;53.556;9.944;2022-08-19T13:43:10;101010.00;;;23.10
17142;BMP180;32805;53.556;9.944;2022-08-19T13:45:49;101017.00;;;23.10
17142;BMP180;32805;53.556;9.944;2022-08-19T13:48:23;101007.00;;;23.10
17142;BMP180;32805;53.556;9.944;2022-08-19T13:50:53;101011.00;;;23.20
17142;BMP180;32805;53.556;9.944;2022-08-19T13:53:22;101004.00;;;23.20
17142;BMP180;32805;53.556;9.944;2022-08-19T13:55:51;101012.00;;;23.20
17142;BMP180;32805;53.556;9.944;2022-08-19T13:58:20;101026.00;;;23.00
17142;BMP180;32805;53.556;9.944;2022-08-19T14:00:48;101016.00;;;22.80
17142;BMP180;32805;53.556;9.944;2022-08-19T14:03:16;101028.00;;;22.90
17142;BMP180;32805;53.556;9.944;2022-08-19T14:05:44;101025.00;;;22.70
17142;BMP180;32805;53.556;9.944;2022-08-19T14:08:13;101026.00;;;22.70
17142;BMP180;32805;53.556;9.944;2022-08-19T14:10:42;101023.00;;;22.50
17142;BMP180;32805;53.556;9.944;2022-08-19T14:13:14;101020.00;;;22.40
17142;BMP180;32805;53.556;9.944;2022-08-19T14:15:42;101025.00;;;22.50
17142;BMP180;32805;53.556;9.944;2022-08-19T14:18:10;101020.00;;;22.70